Weather observations for the past three days for
Daniel K Inouye International Airport
Metric (Imperial)
Date Time (hst) Wind (kph) Vis. (km) Weather Sky Cond. Temperature (ºC) Relative Humidity Wind Chill (°C) Heat Index (°C) Pressure Precipitation (cm)
Air Dwpt 6 hour altimeter (cm) sea level (mb) 1 hr 3 hr 6 hr
Max. Min.
31 01:53 E 19 16.09 Overcast FEW025 BKN045 OVC070 26.1 20 27.2 24.4 69% 27 76.23 1016.1
31 00:53 NE 20 G 31 16.09 Mostly Cloudy FEW025 SCT035 BKN075 26.1 19.4 67% 27 76.28 1016.7
30 23:53 NE 19 16.09 Light Rain FEW025 BKN035 24.4 20.6 79% 25 76.33 1017.5
30 22:53 E 30 G 43 16.09 Light Rain FEW022 SCT034 BKN041 25 21.1 79% 26 76.38 1018.0
30 21:53 NE 19 16.09 Mostly Cloudy FEW022 SCT034 BKN041 25 21.1 79% 26 76.33 1017.5
30 20:53 E 17 16.09 Light Rain FEW020 SCT042 BKN060 26.1 21.1 74% 28 76.3 1017.1
30 19:53 NE 20 16.09 Mostly Cloudy FEW020 BKN035 27.2 20.6 30.6 26.7 67% 29 76.25 1016.6
30 18:53 E 31 16.09 A Few Clouds FEW020 FEW038 27.2 20 65% 29 76.2 1015.9
30 17:53 E 31 16.09 A Few Clouds FEW023 FEW038 28.9 20 59% 31 76.15 1015.1
30 16:53 E 19 G 41 16.09 A Few Clouds FEW025 FEW038 28.9 20 59% 31 76.12 1014.9
30 15:53 E 31 G 46 16.09 A Few Clouds FEW027 FEW038 30 19.4 53% 32 76.15 1015.0
30 14:53 NE 26 G 44 16.09 A Few Clouds FEW027 FEW040 30.6 19.4 51% 32 76.17 1015.4
30 13:53 NE 30 G 41 16.09 A Few Clouds FEW027 FEW037 30 19.4 30.6 26.7 53% 32 76.2 1015.8
30 12:53 NE 22 G 41 16.09 Partly Cloudy FEW027 SCT037 SCT049 28.9 20.6 61% 31 76.28 1016.9
30 11:53 Vrbl 11 16.09 Partly Cloudy FEW028 FEW041 SCT050 27.8 21.1 67% 30 76.3 1017.2
30 10:53 E 22 G 33 16.09 A Few Clouds FEW027 FEW036 FEW046 28.3 20.6 63% 30 76.3 1017.2
30 09:53 E 37 G 52 16.09 A Few Clouds and Breezy FEW027 FEW037 FEW047 28.9 19.4 57% 30 76.33 1017.5
30 08:53 E 31 G 41 16.09 A Few Clouds FEW025 FEW049 FEW180 28.3 19.4 59% 30 76.3 1017.1
30 07:53 NE 26 G 39 16.09 A Few Clouds FEW025 FEW045 FEW180 27.2 18.9 27.2 25.6 61% 28 76.28 1016.9
30 06:53 NE 9 16.09 A Few Clouds FEW025 FEW045 FEW180 26.1 19.4 67% 27 76.25 1016.5
30 05:53 E 19 G 33 16.09 A Few Clouds FEW025 FEW045 25.6 18.9 67% 27 76.23 1016.0
30 04:53 NE 24 16.09 Partly Cloudy FEW025 FEW050 SCT080 26.1 18.9 65% 27 76.17 1015.5
30 03:53 NE 24 16.09 Partly Cloudy FEW025 SCT050 26.1 19.4 67% 27 76.15 1015.0
30 02:53 NE 24 G 33 16.09 Mostly Cloudy FEW025 BKN045 25.6 19.4 69% 27 76.15 1015.1
30 01:53 NE 17 G 35 16.09 Partly Cloudy FEW025 SCT045 26.1 19.4 27.2 26.1 67% 27 76.17 1015.5
30 00:53 NE 19 16.09 A Few Clouds FEW025 FEW045 26.1 19.4 67% 27 76.23 1016.1
29 23:53 NE 22 16.09 A Few Clouds FEW024 FEW042 26.7 18.9 62% 28 76.25 1016.4
29 22:53 NE 28 G 44 16.09 A Few Clouds FEW024 FEW042 26.7 18.9 62% 28 76.28 1016.8
29 21:53 NE 33 G 43 16.09 A Few Clouds and Breezy FEW024 FEW042 FEW050 26.7 19.4 64% 28 76.25 1016.4
29 20:53 E 35 G 46 16.09 A Few Clouds and Breezy FEW024 FEW042 FEW050 26.7 19.4 64% 28 76.2 1015.7
29 19:53 NE 26 G 44 16.09 Partly Cloudy FEW018 SCT038 SCT060 27.2 20.6 30.6 26.1 67% 29 76.15 1015.0
29 18:53 E 26 G 41 16.09 Partly Cloudy FEW020 SCT042 26.7 20.6 69% 28 76.1 1014.5
29 17:53 NE 22 16.09 A Few Clouds FEW018 FEW040 28.3 20.6 63% 30 76.07 1014.1
29 16:53 NE 37 G 48 16.09 A Few Clouds and Breezy FEW022 FEW040 29.4 19.4 55% 31 76.05 1013.9
29 15:53 E 33 G 57 16.09 A Few Clouds and Breezy FEW030 FEW041 30.6 18.3 48% 32 76.07 1014.0
29 14:53 E 35 G 50 16.09 A Few Clouds and Breezy FEW025 FEW040 30.6 19.4 51% 32 76.1 1014.4
29 13:53 E 33 G 52 16.09 A Few Clouds and Breezy FEW025 FEW040 30.6 18.9 31.1 26.1 50% 32 76.12 1014.8
29 12:53 E 26 G 48 16.09 A Few Clouds FEW025 FEW040 31.1 18.9 48% 32 76.17 1015.6
29 11:53 E 28 G 54 16.09 A Few Clouds FEW025 FEW040 30 20 55% 32 76.2 1015.8
29 10:53 E 24 16.09 A Few Clouds FEW025 FEW040 FEW070 28.9 21.1 63% 31 76.23 1016.2
29 09:53 E 26 16.09 Partly Cloudy FEW023 FEW035 SCT070 28.3 21.1 65% 31 76.23 1016.2
29 08:53 E 26 G 37 16.09 Mostly Cloudy FEW023 FEW040 BKN075 27.2 21.1 69% 29 76.23 1016.1
29 07:53 NE 24 16.09 Mostly Cloudy FEW023 FEW040 BKN075 26.1 19.4 26.7 24.4 67% 27 76.2 1015.7
29 06:53 NE 13 G 28 16.09 Mostly Cloudy FEW025 FEW040 BKN060 26.1 19.4 67% 27 76.17 1015.4
29 05:53 NE 7 16.09 Mostly Cloudy FEW015 SCT040 BKN060 25.6 20 71% 27 76.12 1014.7
29 04:53 NE 11 16.09 Mostly Cloudy FEW025 SCT045 BKN080 25 20.6 77% 26 76.1 1014.6
29 03:53 NE 9 16.09 Partly Cloudy FEW025 SCT055 24.4 21.1 82% 25 76.1 1014.4
29 02:53 E 17 11.27 Light Rain FEW025 SCT040 OVC060 25 21.1 79% 26 76.12 1014.7
29 01:53 E 15 16.09 Mostly Cloudy FEW025 FEW040 SCT060 BKN130 25.6 20.6 26.7 25.6 74% 27 76.12 1014.8
29 00:53 NE 17 16.09 Mostly Cloudy FEW025 SCT035 BKN060 26.1 20.6 72% 28 76.12 1014.9
28 23:53 NE 15 16.09 Partly Cloudy FEW025 FEW040 SCT060 26.1 19.4 67% 27 76.15 1015.3
28 22:53 NE 19 16.09 Partly Cloudy FEW025 FEW040 SCT055 25.6 20 71% 27 76.17 1015.4
28 21:53 NE 22 16.09 A Few Clouds FEW025 FEW040 FEW055 26.1 19.4 67% 27 76.15 1015.2
28 20:53 NE 30 G 43 16.09 A Few Clouds FEW025 FEW040 FEW055 26.7 20 67% 28 76.1 1014.6
28 19:53 E 30 G 39 16.09 A Few Clouds FEW025 FEW040 FEW055 26.7 19.4 31.1 26.7 64% 28 76.07 1014.1
28 18:53 NE 19 G 41 16.09 A Few Clouds FEW025 FEW042 FEW060 27.2 20 65% 29 76.02 1013.6
28 17:53 NE 24 G 46 16.09 A Few Clouds FEW027 FEW042 28.3 18.9 57% 30 76 1013.0
28 16:53 NE 26 G 41 16.09 A Few Clouds FEW027 FEW042 29.4 19.4 55% 31 76 1013.1
28 15:53 NE 28 G 41 16.09 A Few Clouds FEW027 FEW042 30 18.3 49% 31 76 1013.1
28 14:53 NE 31 G 48 16.09 A Few Clouds FEW025 FEW042 FEW060 30 18.3 49% 31 76.02 1013.4
28 13:53 E 30 G 41 16.09 Partly Cloudy FEW025 SCT042 30.6 18.3 31.1 26.7 48% 32 76.07 1014.1
28 12:53 NE 24 G 43 16.09 Partly Cloudy FEW025 SCT040 30.6 18.9 50% 32 76.1 1014.6
28 11:53 NE 24 G 43 16.09 Partly Cloudy FEW025 SCT036 30.6 19.4 51% 32 76.15 1015.1
28 10:53 NE 28 G 44 16.09 Partly Cloudy FEW025 SCT040 SCT060 29.4 19.4 55% 31 76.15 1015.3
28 09:53 NE 28 G 44 16.09 A Few Clouds FEW025 FEW040 29.4 18.3 51% 30 76.15 1015.2
28 08:53 E 24 16.09 Partly Cloudy FEW025 SCT047 27.8 18.3 56% 29 76.15 1015.3
28 07:53 NE 17 16.09 A Few Clouds FEW041 FEW050 26.7 19.4 27.2 25 64% 28 76.12 1014.9
28 06:53 NE 11 16.09 Partly Cloudy FEW025 SCT040 25.6 18.9 67% 27 76.07 1014.3
28 05:53 NE 17 16.09 A Few Clouds FEW025 FEW046 25.6 18.3 64% 27 76.07 1014.1
28 04:53 NE 15 16.09 Partly Cloudy FEW026 SCT044 25.6 18.9 67% 27 76.05 1013.8
28 03:53 NE 13 16.09 Partly Cloudy FEW026 SCT044 25.6 18.9 67% 27 76.05 1013.8
28 02:53 NE 19 16.09 A Few Clouds FEW026 FEW044 25.6 19.4 69% 27 76.07 1014.2
Date Time (hst) Wind (kph) Vis. (km) Weather Sky Cond. Air Dwpt Max. Min. Relative Humidity Wind Chill (°C) Heat Index (°C) altimeter (cm) sea level (mb) 1 hr 3 hr 6 hr
6 hour
Temperature (ºC) Pressure Precipitation (cm)